sensor_id;sensor_type;location;lat;lon;timestamp;pressure;altitude;pressure_sealevel;temperature;humidity
55289;BME280;41154;45.394;5.734;2023-05-10T00:01:24;96917.25;;;12.40;100.00
55289;BME280;41154;45.394;5.734;2023-05-10T00:03:50;96915.34;;;12.41;100.00
55289;BME280;41154;45.394;5.734;2023-05-10T00:06:16;96914.81;;;12.39;100.00
55289;BME280;41154;45.394;5.734;2023-05-10T00:08:41;96916.41;;;12.40;100.00
55289;BME280;41154;45.394;5.734;2023-05-10T00:11:07;96922.88;;;12.39;100.00
55289;BME280;41154;45.394;5.734;2023-05-10T00:13:33;96922.38;;;12.42;100.00
55289;BME280;41154;45.394;5.734;2023-05-10T00:15:59;96933.59;;;12.34;100.00
55289;BME280;41154;45.394;5.734;2023-05-10T00:18:24;96929.06;;;12.39;100.00
55289;BME280;41154;45.394;5.734;2023-05-10T00:20:50;96931.50;;;12.41;100.00
55289;BME280;41154;45.394;5.734;2023-05-10T00:23:16;96935.63;;;12.74;100.00
55289;BME280;41154;45.394;5.734;2023-05-10T00:25:42;96943.16;;;12.62;100.00
55289;BME280;41154;45.394;5.734;2023-05-10T00:28:07;96954.78;;;12.15;100.00
55289;BME280;41154;45.394;5.734;2023-05-10T00:30:33;96948.63;;;12.25;100.00
55289;BME280;41154;45.394;5.734;2023-05-10T00:33:00;96932.81;;;12.33;100.00
55289;BME280;41154;45.394;5.734;2023-05-10T00:35:26;96941.59;;;12.13;100.00
55289;BME280;41154;45.394;5.734;2023-05-10T00:37:53;96946.84;;;11.93;100.00
55289;BME280;41154;45.394;5.734;2023-05-10T00:40:20;96957.75;;;11.81;100.00
55289;BME280;41154;45.394;5.734;2023-05-10T00:42:50;96955.59;;;11.78;100.00
55289;BME280;41154;45.394;5.734;2023-05-10T00:45:16;96957.81;;;11.86;100.00
55289;BME280;41154;45.394;5.734;2023-05-10T00:47:41;96949.22;;;12.32;100.00
55289;BME280;41154;45.394;5.734;2023-05-10T00:50:08;96941.34;;;12.20;100.00
55289;BME280;41154;45.394;5.734;2023-05-10T00:52:34;96949.09;;;12.06;100.00
55289;BME280;41154;45.394;5.734;2023-05-10T00:55:00;96955.19;;;11.96;100.00
55289;BME280;41154;45.394;5.734;2023-05-10T00:57:26;96951.84;;;11.79;100.00
55289;BME280;41154;45.394;5.734;2023-05-10T00:59:52;96947.34;;;11.90;100.00
55289;BME280;41154;45.394;5.734;2023-05-10T01:02:18;96929.06;;;11.86;100.00
55289;BME280;41154;45.394;5.734;2023-05-10T01:04:44;96928.50;;;11.84;100.00
55289;BME280;41154;45.394;5.734;2023-05-10T01:07:10;96920.03;;;12.03;100.00
55289;BME280;41154;45.394;5.734;2023-05-10T01:09:36;96918.09;;;11.93;100.00
55289;BME280;41154;45.394;5.734;2023-05-10T01:12:02;96921.22;;;11.80;100.00
55289;BME280;41154;45.394;5.734;2023-05-10T01:14:29;96926.53;;;11.69;100.00
55289;BME280;41154;45.394;5.734;2023-05-10T01:16:56;96923.56;;;11.71;100.00
55289;BME280;41154;45.394;5.734;2023-05-10T01:19:24;96929.56;;;11.83;100.00
55289;BME280;41154;45.394;5.734;2023-05-10T01:24:38;96932.19;;;11.73;100.00
55289;BME280;41154;45.394;5.734;2023-05-10T01:30:04;96930.50;;;11.62;100.00
55289;BME280;41154;45.394;5.734;2023-05-10T01:35:51;96928.78;;;11.45;100.00
55289;BME280;41154;45.394;5.734;2023-05-10T01:38:26;96923.47;;;11.56;100.00
55289;BME280;41154;45.394;5.734;2023-05-10T01:41:15;96933.44;;;11.60;100.00
55289;BME280;41154;45.394;5.734;2023-05-10T01:43:51;96941.25;;;11.62;100.00
55289;BME280;41154;45.394;5.734;2023-05-10T01:46:26;96947.38;;;11.57;100.00
55289;BME280;41154;45.394;5.734;2023-05-10T01:48:55;96947.06;;;11.86;100.00
55289;BME280;41154;45.394;5.734;2023-05-10T01:51:24;96954.88;;;11.87;100.00
55289;BME280;41154;45.394;5.734;2023-05-10T01:54:00;96951.00;;;12.11;100.00
55289;BME280;41154;45.394;5.734;2023-05-10T01:56:30;96951.72;;;12.01;100.00
55289;BME280;41154;45.394;5.734;2023-05-10T01:58:58;96945.97;;;11.87;100.00
55289;BME280;41154;45.394;5.734;2023-05-10T02:01:26;96947.72;;;11.66;100.00
55289;BME280;41154;45.394;5.734;2023-05-10T02:03:53;96956.72;;;11.49;100.00
55289;BME280;41154;45.394;5.734;2023-05-10T02:06:22;96960.28;;;11.55;100.00
55289;BME280;41154;45.394;5.734;2023-05-10T02:08:49;96962.22;;;11.65;100.00
55289;BME280;41154;45.394;5.734;2023-05-10T02:11:17;96966.56;;;11.71;100.00
55289;BME280;41154;45.394;5.734;2023-05-10T02:13:44;96974.09;;;11.69;100.00
55289;BME280;41154;45.394;5.734;2023-05-10T02:16:13;96974.63;;;11.71;100.00
55289;BME280;41154;45.394;5.734;2023-05-10T02:18:40;96966.28;;;11.67;100.00
55289;BME280;41154;45.394;5.734;2023-05-10T02:21:08;96965.00;;;11.75;100.00
55289;BME280;41154;45.394;5.734;2023-05-10T02:23:34;96957.47;;;11.77;100.00
55289;BME280;41154;45.394;5.734;2023-05-10T02:26:02;96960.00;;;11.51;100.00
55289;BME280;41154;45.394;5.734;2023-05-10T02:28:29;96960.75;;;11.47;100.00
55289;BME280;41154;45.394;5.734;2023-05-10T02:30:57;96961.81;;;11.46;100.00
55289;BME280;41154;45.394;5.734;2023-05-10T02:33:23;96960.53;;;11.54;100.00
55289;BME280;41154;45.394;5.734;2023-05-10T02:35:52;96961.09;;;11.56;100.00
55289;BME280;41154;45.394;5.734;2023-05-10T02:38:20;96961.34;;;11.54;100.00
55289;BME280;41154;45.394;5.734;2023-05-10T02:40:47;96961.59;;;11.52;100.00
55289;BME280;41154;45.394;5.734;2023-05-10T02:43:15;96960.50;;;11.48;100.00
55289;BME280;41154;45.394;5.734;2023-05-10T02:45:43;96963.78;;;11.56;100.00
55289;BME280;41154;45.394;5.734;2023-05-10T02:48:12;96964.78;;;11.49;100.00
55289;BME280;41154;45.394;5.734;2023-05-10T02:50:39;96962.63;;;11.46;100.00
55289;BME280;41154;45.394;5.734;2023-05-10T02:53:11;96960.44;;;11.43;100.00
55289;BME280;41154;45.394;5.734;2023-05-10T02:55:41;96960.00;;;11.51;100.00
55289;BME280;41154;45.394;5.734;2023-05-10T02:58:10;96958.47;;;11.66;100.00
55289;BME280;41154;45.394;5.734;2023-05-10T03:00:36;96956.09;;;11.75;100.00
55289;BME280;41154;45.394;5.734;2023-05-10T03:03:02;96955.91;;;11.81;100.00
55289;BME280;41154;45.394;5.734;2023-05-10T03:05:28;96971.09;;;11.65;100.00
55289;BME280;41154;45.394;5.734;2023-05-10T03:07:55;96964.34;;;11.58;100.00
55289;BME280;41154;45.394;5.734;2023-05-10T03:10:26;96964.38;;;11.63;100.00
55289;BME280;41154;45.394;5.734;2023-05-10T03:13:13;96974.50;;;11.56;100.00
55289;BME280;41154;45.394;5.734;2023-05-10T03:18:33;96966.84;;;11.37;100.00
55289;BME280;41154;45.394;5.734;2023-05-10T03:21:04;96965.25;;;11.36;100.00
55289;BME280;41154;45.394;5.734;2023-05-10T03:23:43;96968.66;;;11.64;100.00
55289;BME280;41154;45.394;5.734;2023-05-10T03:26:26;96966.13;;;11.47;100.00
55289;BME280;41154;45.394;5.734;2023-05-10T03:28:59;96974.78;;;11.54;100.00
55289;BME280;41154;45.394;5.734;2023-05-10T03:31:25;96966.03;;;11.37;100.00
55289;BME280;41154;45.394;5.734;2023-05-10T03:33:52;96968.22;;;11.40;100.00
55289;BME280;41154;45.394;5.734;2023-05-10T03:36:23;96963.59;;;11.35;100.00
55289;BME280;41154;45.394;5.734;2023-05-10T03:38:49;96964.13;;;11.32;100.00
55289;BME280;41154;45.394;5.734;2023-05-10T03:41:15;96961.69;;;11.30;100.00
55289;BME280;41154;45.394;5.734;2023-05-10T03:43:41;96957.09;;;11.26;100.00
55289;BME280;41154;45.394;5.734;2023-05-10T03:46:07;96955.00;;;11.33;100.00
55289;BME280;41154;45.394;5.734;2023-05-10T03:48:33;96955.81;;;11.33;100.00
55289;BME280;41154;45.394;5.734;2023-05-10T03:50:59;96951.06;;;11.46;100.00
55289;BME280;41154;45.394;5.734;2023-05-10T03:53:25;96949.69;;;11.43;100.00
55289;BME280;41154;45.394;5.734;2023-05-10T03:55:51;96950.44;;;11.33;100.00
55289;BME280;41154;45.394;5.734;2023-05-10T03:58:16;96954.31;;;11.48;100.00
55289;BME280;41154;45.394;5.734;2023-05-10T04:00:42;96957.31;;;11.51;100.00
55289;BME280;41154;45.394;5.734;2023-05-10T04:03:12;96960.75;;;11.47;100.00
55289;BME280;41154;45.394;5.734;2023-05-10T04:05:40;96960.03;;;11.57;100.00
55289;BME280;41154;45.394;5.734;2023-05-10T04:08:06;96952.78;;;11.62;100.00
55289;BME280;41154;45.394;5.734;2023-05-10T04:10:32;96941.25;;;11.62;100.00
55289;BME280;41154;45.394;5.734;2023-05-10T04:12:58;96953.59;;;11.58;100.00
55289;BME280;41154;45.394;5.734;2023-05-10T04:15:23;96959.38;;;11.44;100.00
55289;BME280;41154;45.394;5.734;2023-05-10T04:17:49;96964.47;;;11.41;100.00
55289;BME280;41154;45.394;5.734;2023-05-10T04:20:16;96957.75;;;11.43;100.00
55289;BME280;41154;45.394;5.734;2023-05-10T04:22:41;96960.16;;;11.40;100.00
55289;BME280;41154;45.394;5.734;2023-05-10T04:25:07;96967.72;;;11.48;100.00
55289;BME280;41154;45.394;5.734;2023-05-10T04:27:33;96969.06;;;11.45;100.00
55289;BME280;41154;45.394;5.734;2023-05-10T04:29:59;96966.31;;;11.40;100.00
55289;BME280;41154;45.394;5.734;2023-05-10T04:32:25;96970.34;;;11.38;100.00
55289;BME280;41154;45.394;5.734;2023-05-10T04:34:50;96969.84;;;11.41;100.00
55289;BME280;41154;45.394;5.734;2023-05-10T04:37:17;96964.88;;;11.27;100.00
55289;BME280;41154;45.394;5.734;2023-05-10T04:39:43;96964.66;;;11.34;100.00
55289;BME280;41154;45.394;5.734;2023-05-10T04:42:09;96965.19;;;11.31;100.00
55289;BME280;41154;45.394;5.734;2023-05-10T04:44:35;96971.31;;;11.26;100.00
55289;BME280;41154;45.394;5.734;2023-05-10T04:47:01;96969.44;;;11.27;100.00
55289;BME280;41154;45.394;5.734;2023-05-10T04:49:29;96974.50;;;11.23;100.00
55289;BME280;41154;45.394;5.734;2023-05-10T04:51:55;96976.75;;;11.31;100.00
55289;BME280;41154;45.394;5.734;2023-05-10T04:54:21;96975.03;;;11.52;100.00
55289;BME280;41154;45.394;5.734;2023-05-10T04:56:47;96981.41;;;11.46;100.00
55289;BME280;41154;45.394;5.734;2023-05-10T04:59:12;96985.59;;;11.32;100.00
55289;BME280;41154;45.394;5.734;2023-05-10T05:01:38;96986.91;;;11.62;100.00
55289;BME280;41154;45.394;5.734;2023-05-10T05:04:04;96980.28;;;11.75;100.00
55289;BME280;41154;45.394;5.734;2023-05-10T05:06:30;96982.25;;;11.47;100.00
55289;BME280;41154;45.394;5.734;2023-05-10T05:08:56;96980.16;;;11.59;100.00
55289;BME280;41154;45.394;5.734;2023-05-10T05:11:21;96981.91;;;11.38;100.00
55289;BME280;41154;45.394;5.734;2023-05-10T05:13:47;96981.34;;;11.36;100.00
55289;BME280;41154;45.394;5.734;2023-05-10T05:16:13;96986.13;;;11.29;100.00
55289;BME280;41154;45.394;5.734;2023-05-10T05:18:39;96982.06;;;11.26;100.00
55289;BME280;41154;45.394;5.734;2023-05-10T05:21:18;96985.91;;;11.36;100.00
55289;BME280;41154;45.394;5.734;2023-05-10T05:23:44;96992.41;;;11.45;100.00
55289;BME280;41154;45.394;5.734;2023-05-10T05:26:10;96994.72;;;11.31;100.00
55289;BME280;41154;45.394;5.734;2023-05-10T05:28:36;96992.91;;;11.37;100.00
55289;BME280;41154;45.394;5.734;2023-05-10T05:31:05;97005.53;;;11.36;100.00
55289;BME280;41154;45.394;5.734;2023-05-10T05:33:31;97000.94;;;11.37;100.00
55289;BME280;41154;45.394;5.734;2023-05-10T05:35:57;97012.31;;;11.17;100.00
55289;BME280;41154;45.394;5.734;2023-05-10T05:38:22;97014.22;;;11.21;100.00
55289;BME280;41154;45.394;5.734;2023-05-10T05:40:49;97012.06;;;11.18;100.00
55289;BME280;41154;45.394;5.734;2023-05-10T05:43:14;97012.97;;;11.29;100.00
55289;BME280;41154;45.394;5.734;2023-05-10T05:45:40;97011.19;;;11.12;100.00
55289;BME280;41154;45.394;5.734;2023-05-10T05:48:06;97019.50;;;11.38;100.00
55289;BME280;41154;45.394;5.734;2023-05-10T05:50:31;97024.50;;;11.57;100.00
55289;BME280;41154;45.394;5.734;2023-05-10T05:52:57;97018.34;;;11.29;100.00
55289;BME280;41154;45.394;5.734;2023-05-10T05:55:24;97024.50;;;11.02;100.00
55289;BME280;41154;45.394;5.734;2023-05-10T05:57:51;97026.78;;;10.66;100.00
55289;BME280;41154;45.394;5.734;2023-05-10T06:00:17;97026.19;;;10.42;100.00
55289;BME280;41154;45.394;5.734;2023-05-10T06:02:44;97042.78;;;10.39;100.00
55289;BME280;41154;45.394;5.734;2023-05-10T06:05:10;97050.59;;;10.40;100.00
55289;BME280;41154;45.394;5.734;2023-05-10T06:07:36;97062.13;;;10.41;100.00
55289;BME280;41154;45.394;5.734;2023-05-10T06:10:01;97069.19;;;10.30;100.00
55289;BME280;41154;45.394;5.734;2023-05-10T06:12:28;97080.00;;;10.18;100.00
55289;BME280;41154;45.394;5.734;2023-05-10T06:14:54;97074.09;;;10.33;100.00
55289;BME280;41154;45.394;5.734;2023-05-10T06:17:19;97085.78;;;10.27;100.00
55289;BME280;41154;45.394;5.734;2023-05-10T06:19:45;97085.13;;;10.20;100.00
55289;BME280;41154;45.394;5.734;2023-05-10T06:22:12;97079.22;;;10.35;100.00
55289;BME280;41154;45.394;5.734;2023-05-10T06:24:37;97073.69;;;10.07;100.00
55289;BME280;41154;45.394;5.734;2023-05-10T06:27:03;97079.69;;;9.98;100.00
55289;BME280;41154;45.394;5.734;2023-05-10T06:29:29;97082.69;;;9.84;100.00
55289;BME280;41154;45.394;5.734;2023-05-10T06:31:55;97080.97;;;9.78;100.00
55289;BME280;41154;45.394;5.734;2023-05-10T06:34:20;97076.78;;;9.82;100.00
55289;BME280;41154;45.394;5.734;2023-05-10T06:36:46;97074.34;;;9.81;100.00
55289;BME280;41154;45.394;5.734;2023-05-10T06:39:12;97069.28;;;9.67;100.00
55289;BME280;41154;45.394;5.734;2023-05-10T06:41:37;97069.53;;;9.66;100.00
55289;BME280;41154;45.394;5.734;2023-05-10T06:44:03;97072.94;;;9.78;100.00
55289;BME280;41154;45.394;5.734;2023-05-10T06:46:29;97067.19;;;9.86;100.00
55289;BME280;41154;45.394;5.734;2023-05-10T06:48:55;97081.81;;;9.79;100.00
55289;BME280;41154;45.394;5.734;2023-05-10T06:51:21;97081.81;;;9.79;100.00
55289;BME280;41154;45.394;5.734;2023-05-10T06:53:46;97079.94;;;9.96;100.00
55289;BME280;41154;45.394;5.734;2023-05-10T06:56:12;97086.03;;;10.08;100.00
55289;BME280;41154;45.394;5.734;2023-05-10T06:58:38;97080.50;;;9.98;100.00
55289;BME280;41154;45.394;5.734;2023-05-10T07:01:06;97086.34;;;9.95;100.00
55289;BME280;41154;45.394;5.734;2023-05-10T07:03:32;97086.09;;;10.14;100.00
55289;BME280;41154;45.394;5.734;2023-05-10T07:06:04;97093.97;;;10.03;100.00
55289;BME280;41154;45.394;5.734;2023-05-10T07:08:33;97096.34;;;10.17;100.00
55289;BME280;41154;45.394;5.734;2023-05-10T07:11:03;97089.38;;;10.55;100.00
55289;BME280;41154;45.394;5.734;2023-05-10T07:13:31;97094.47;;;10.34;100.00
55289;BME280;41154;45.394;5.734;2023-05-10T07:15:57;97095.69;;;10.43;100.00
55289;BME280;41154;45.394;5.734;2023-05-10T07:18:24;97100.72;;;10.79;100.00
55289;BME280;41154;45.394;5.734;2023-05-10T07:20:49;97096.16;;;10.79;100.00
55289;BME280;41154;45.394;5.734;2023-05-10T07:23:15;97101.25;;;10.59;100.00
55289;BME280;41154;45.394;5.734;2023-05-10T07:25:50;97105.81;;;10.58;100.00
55289;BME280;41154;45.394;5.734;2023-05-10T07:28:18;97110.47;;;10.85;100.00
55289;BME280;41154;45.394;5.734;2023-05-10T07:30:44;97114.34;;;10.94;100.00
55289;BME280;41154;45.394;5.734;2023-05-10T07:33:13;97106.59;;;10.76;100.00
55289;BME280;41154;45.394;5.734;2023-05-10T07:35:40;97117.06;;;11.00;100.00
55289;BME280;41154;45.394;5.734;2023-05-10T07:38:06;97110.84;;;11.16;100.00
55289;BME280;41154;45.394;5.734;2023-05-10T07:40:31;97107.06;;;11.39;100.00
55289;BME280;41154;45.394;5.734;2023-05-10T07:42:57;97113.41;;;11.55;100.00
55289;BME280;41154;45.394;5.734;2023-05-10T07:45:24;97111.53;;;11.56;100.00
55289;BME280;41154;45.394;5.734;2023-05-10T07:47:49;97112.44;;;11.39;100.00
55289;BME280;41154;45.394;5.734;2023-05-10T07:50:15;97116.84;;;11.50;100.00
55289;BME280;41154;45.394;5.734;2023-05-10T07:52:41;97120.78;;;11.70;100.00
55289;BME280;41154;45.394;5.734;2023-05-10T07:55:07;97115.75;;;11.74;100.00
55289;BME280;41154;45.394;5.734;2023-05-10T07:57:34;97111.38;;;11.95;100.00
55289;BME280;41154;45.394;5.734;2023-05-10T08:00:00;97113.25;;;12.27;100.00
55289;BME280;41154;45.394;5.734;2023-05-10T08:02:25;97120.03;;;12.34;100.00
55289;BME280;41154;45.394;5.734;2023-05-10T08:04:51;97120.75;;;12.62;100.00
55289;BME280;41154;45.394;5.734;2023-05-10T08:07:17;97119.28;;;12.92;100.00
55289;BME280;41154;45.394;5.734;2023-05-10T08:09:43;97116.97;;;13.21;100.00
55289;BME280;41154;45.394;5.734;2023-05-10T08:12:08;97124.19;;;13.84;100.00
55289;BME280;41154;45.394;5.734;2023-05-10T08:14:35;97123.34;;;13.73;100.00
55289;BME280;41154;45.394;5.734;2023-05-10T08:17:02;97115.53;;;13.77;100.00
55289;BME280;41154;45.394;5.734;2023-05-10T08:19:28;97108.44;;;18.11;100.00
55289;BME280;41154;45.394;5.734;2023-05-10T08:21:54;97101.09;;;18.59;100.00
55289;BME280;41154;45.394;5.734;2023-05-10T08:24:21;97101.97;;;19.15;97.42
55289;BME280;41154;45.394;5.734;2023-05-10T08:26:47;97111.59;;;17.18;100.00
55289;BME280;41154;45.394;5.734;2023-05-10T08:29:14;97110.13;;;16.83;100.00
55289;BME280;41154;45.394;5.734;2023-05-10T08:31:40;97115.88;;;15.73;100.00
55289;BME280;41154;45.394;5.734;2023-05-10T08:34:05;97110.25;;;15.14;100.00
55289;BME280;41154;45.394;5.734;2023-05-10T08:36:31;97116.59;;;14.68;100.00
55289;BME280;41154;45.394;5.734;2023-05-10T08:38:58;97110.44;;;13.86;100.00
55289;BME280;41154;45.394;5.734;2023-05-10T08:41:24;97106.91;;;14.16;100.00
55289;BME280;41154;45.394;5.734;2023-05-10T08:43:54;97111.50;;;14.20;100.00
55289;BME280;41154;45.394;5.734;2023-05-10T08:46:22;97109.81;;;13.47;100.00
55289;BME280;41154;45.394;5.734;2023-05-10T08:48:49;97113.66;;;13.93;100.00
55289;BME280;41154;45.394;5.734;2023-05-10T08:51:22;97109.63;;;13.90;100.00
55289;BME280;41154;45.394;5.734;2023-05-10T08:53:48;97106.06;;;14.72;100.00
55289;BME280;41154;45.394;5.734;2023-05-10T08:56:15;97117.66;;;13.59;100.00
55289;BME280;41154;45.394;5.734;2023-05-10T08:58:41;97120.66;;;13.83;100.00
55289;BME280;41154;45.394;5.734;2023-05-10T09:01:08;97115.91;;;16.12;100.00
55289;BME280;41154;45.394;5.734;2023-05-10T09:03:35;97100.81;;;21.60;85.26
55289;BME280;41154;45.394;5.734;2023-05-10T09:06:04;97088.78;;;22.39;72.85
55289;BME280;41154;45.394;5.734;2023-05-10T09:08:30;97098.59;;;21.70;71.10
55289;BME280;41154;45.394;5.734;2023-05-10T09:10:57;97104.50;;;17.66;88.85
55289;BME280;41154;45.394;5.734;2023-05-10T09:13:23;97102.66;;;17.80;84.05
55289;BME280;41154;45.394;5.734;2023-05-10T09:15:49;97117.47;;;15.84;98.34
55289;BME280;41154;45.394;5.734;2023-05-10T09:18:16;97109.13;;;15.70;100.00
55289;BME280;41154;45.394;5.734;2023-05-10T09:20:42;97112.69;;;15.10;100.00
55289;BME280;41154;45.394;5.734;2023-05-10T09:23:08;97120.94;;;14.28;100.00
55289;BME280;41154;45.394;5.734;2023-05-10T09:25:34;97118.50;;;13.65;100.00
55289;BME280;41154;45.394;5.734;2023-05-10T09:28:00;97124.47;;;14.18;100.00
55289;BME280;41154;45.394;5.734;2023-05-10T09:30:26;97125.47;;;13.71;100.00
55289;BME280;41154;45.394;5.734;2023-05-10T09:32:53;97118.16;;;14.85;100.00
55289;BME280;41154;45.394;5.734;2023-05-10T09:35:21;97116.63;;;14.17;100.00
55289;BME280;41154;45.394;5.734;2023-05-10T09:37:53;97123.03;;;14.83;100.00
55289;BME280;41154;45.394;5.734;2023-05-10T09:40:24;97128.78;;;14.19;100.00
55289;BME280;41154;45.394;5.734;2023-05-10T09:43:06;97126.53;;;14.94;100.00
55289;BME280;41154;45.394;5.734;2023-05-10T09:45:34;97120.03;;;15.60;100.00
55289;BME280;41154;45.394;5.734;2023-05-10T09:48:03;97130.94;;;16.87;100.00
55289;BME280;41154;45.394;5.734;2023-05-10T09:50:29;97115.75;;;19.46;97.64
55289;BME280;41154;45.394;5.734;2023-05-10T09:53:00;97113.06;;;18.11;100.00
55289;BME280;41154;45.394;5.734;2023-05-10T09:55:41;97115.63;;;16.43;100.00
55289;BME280;41154;45.394;5.734;2023-05-10T09:58:08;97123.31;;;15.52;100.00
55289;BME280;41154;45.394;5.734;2023-05-10T10:00:38;97123.91;;;14.32;100.00
55289;BME280;41154;45.394;5.734;2023-05-10T10:03:04;97131.19;;;14.11;100.00
55289;BME280;41154;45.394;5.734;2023-05-10T10:05:35;97132.53;;;13.88;100.00
55289;BME280;41154;45.394;5.734;2023-05-10T10:08:05;97124.19;;;14.15;100.00
55289;BME280;41154;45.394;5.734;2023-05-10T10:10:32;97118.78;;;14.66;100.00
55289;BME280;41154;45.394;5.734;2023-05-10T10:12:59;97115.56;;;14.23;100.00
55289;BME280;41154;45.394;5.734;2023-05-10T10:15:26;97122.56;;;14.24;100.00
55289;BME280;41154;45.394;5.734;2023-05-10T10:17:52;97111.22;;;14.68;100.00
55289;BME280;41154;45.394;5.734;2023-05-10T10:20:20;97112.38;;;15.22;100.00
55289;BME280;41154;45.394;5.734;2023-05-10T10:22:47;97109.16;;;16.39;94.42
55289;BME280;41154;45.394;5.734;2023-05-10T10:25:14;97104.13;;;17.34;92.80
55289;BME280;41154;45.394;5.734;2023-05-10T10:30:44;97117.28;;;16.10;97.64
55289;BME280;41154;45.394;5.734;2023-05-10T10:35:37;97110.81;;;17.18;93.89
55289;BME280;41154;45.394;5.734;2023-05-10T10:38:03;97111.34;;;15.63;98.26
55289;BME280;41154;45.394;5.734;2023-05-10T10:40:31;97116.59;;;16.28;98.84
55289;BME280;41154;45.394;5.734;2023-05-10T10:42:58;97105.00;;;16.23;94.12
55289;BME280;41154;45.394;5.734;2023-05-10T10:45:25;97098.06;;;16.11;99.21
55289;BME280;41154;45.394;5.734;2023-05-10T10:48:22;97098.28;;;15.80;96.35
55289;BME280;41154;45.394;5.734;2023-05-10T10:50:56;97095.09;;;15.18;99.65
55289;BME280;41154;45.394;5.734;2023-05-10T10:53:26;97097.94;;;14.77;100.00
55289;BME280;41154;45.394;5.734;2023-05-10T10:56:04;97099.34;;;14.33;100.00
55289;BME280;41154;45.394;5.734;2023-05-10T10:58:34;97109.78;;;13.37;100.00
55289;BME280;41154;45.394;5.734;2023-05-10T11:01:19;97108.34;;;13.19;100.00
55289;BME280;41154;45.394;5.734;2023-05-10T11:04:17;97116.69;;;13.23;100.00
55289;BME280;41154;45.394;5.734;2023-05-10T11:06:43;97119.69;;;13.26;100.00
55289;BME280;41154;45.394;5.734;2023-05-10T11:09:11;97113.63;;;13.77;100.00
55289;BME280;41154;45.394;5.734;2023-05-10T11:11:54;97102.84;;;13.72;100.00
55289;BME280;41154;45.394;5.734;2023-05-10T11:14:24;97107.44;;;13.97;100.00
55289;BME280;41154;45.394;5.734;2023-05-10T11:16:50;97111.25;;;13.96;100.00
55289;BME280;41154;45.394;5.734;2023-05-10T11:19:17;97113.34;;;14.56;100.00
55289;BME280;41154;45.394;5.734;2023-05-10T11:22:11;97112.88;;;14.08;100.00
55289;BME280;41154;45.394;5.734;2023-05-10T11:24:39;97104.50;;;13.89;100.00
55289;BME280;41154;45.394;5.734;2023-05-10T11:27:05;97113.38;;;13.94;100.00
55289;BME280;41154;45.394;5.734;2023-05-10T11:29:31;97113.91;;;13.71;100.00
55289;BME280;41154;45.394;5.734;2023-05-10T11:32:00;97115.53;;;13.72;100.00
55289;BME280;41154;45.394;5.734;2023-05-10T11:34:28;97114.97;;;13.70;100.00
55289;BME280;41154;45.394;5.734;2023-05-10T11:36:56;97116.38;;;13.98;100.00
55289;BME280;41154;45.394;5.734;2023-05-10T11:39:31;97107.09;;;13.42;100.00
55289;BME280;41154;45.394;5.734;2023-05-10T11:41:59;97109.28;;;13.45;100.00
55289;BME280;41154;45.394;5.734;2023-05-10T11:44:34;97112.22;;;13.39;100.00
55289;BME280;41154;45.394;5.734;2023-05-10T11:47:01;97117.94;;;12.94;100.00
55289;BME280;41154;45.394;5.734;2023-05-10T11:49:28;97125.19;;;12.89;100.00
55289;BME280;41154;45.394;5.734;2023-05-10T11:52:06;97109.41;;;13.13;100.00
55289;BME280;41154;45.394;5.734;2023-05-10T11:54:32;97117.84;;;12.74;100.00
55289;BME280;41154;45.394;5.734;2023-05-10T11:57:00;97116.56;;;12.87;100.00
55289;BME280;41154;45.394;5.734;2023-05-10T11:59:26;97116.38;;;13.04;100.00
55289;BME280;41154;45.394;5.734;2023-05-10T12:01:52;97116.59;;;13.60;100.00
55289;BME280;41154;45.394;5.734;2023-05-10T12:04:18;97122.09;;;13.18;100.00
55289;BME280;41154;45.394;5.734;2023-05-10T12:06:44;97131.53;;;13.20;100.00
55289;BME280;41154;45.394;5.734;2023-05-10T12:09:12;97126.66;;;13.17;100.00
55289;BME280;41154;45.394;5.734;2023-05-10T12:11:39;97126.16;;;13.20;100.00
55289;BME280;41154;45.394;5.734;2023-05-10T12:14:06;97133.94;;;13.17;100.00
55289;BME280;41154;45.394;5.734;2023-05-10T12:16:33;97134.09;;;13.58;100.00
55289;BME280;41154;45.394;5.734;2023-05-10T12:19:00;97134.31;;;13.36;100.00
55289;BME280;41154;45.394;5.734;2023-05-10T12:21:28;97143.09;;;13.16;100.00
55289;BME280;41154;45.394;5.734;2023-05-10T12:23:56;97135.06;;;13.31;100.00
55289;BME280;41154;45.394;5.734;2023-05-10T12:26:24;97138.16;;;13.71;100.00
55289;BME280;41154;45.394;5.734;2023-05-10T12:28:55;97137.66;;;14.05;100.00
55289;BME280;41154;45.394;5.734;2023-05-10T12:31:21;97137.38;;;13.75;100.00
55289;BME280;41154;45.394;5.734;2023-05-10T12:33:46;97137.59;;;13.53;100.00
55289;BME280;41154;45.394;5.734;2023-05-10T12:36:15;97142.97;;;13.48;100.00
55289;BME280;41154;45.394;5.734;2023-05-10T12:38:43;97139.78;;;13.66;100.00
55289;BME280;41154;45.394;5.734;2023-05-10T12:41:10;97137.63;;;13.74;100.00
55289;BME280;41154;45.394;5.734;2023-05-10T12:43:37;97130.63;;;13.78;100.00
55289;BME280;41154;45.394;5.734;2023-05-10T12:46:11;97130.13;;;14.22;100.00
55289;BME280;41154;45.394;5.734;2023-05-10T12:48:38;97136.03;;;13.98;100.00
55289;BME280;41154;45.394;5.734;2023-05-10T12:51:05;97123.09;;;14.42;100.00
55289;BME280;41154;45.394;5.734;2023-05-10T12:53:35;97120.59;;;14.91;100.00
55289;BME280;41154;45.394;5.734;2023-05-10T12:56:01;97116.47;;;15.09;98.00
55289;BME280;41154;45.394;5.734;2023-05-10T12:58:27;97123.31;;;14.91;100.00
55289;BME280;41154;45.394;5.734;2023-05-10T13:00:53;97115.31;;;15.31;98.45
55289;BME280;41154;45.394;5.734;2023-05-10T13:03:19;97116.03;;;15.52;100.00
55289;BME280;41154;45.394;5.734;2023-05-10T13:05:45;97113.91;;;15.39;95.43
55289;BME280;41154;45.394;5.734;2023-05-10T13:08:11;97109.97;;;15.16;100.00
55289;BME280;41154;45.394;5.734;2023-05-10T13:10:37;97107.78;;;15.73;99.37